createdAt,value
2023-01-10T00:01:52.442Z,3.28
2023-01-10T00:04:59.307Z,3.29
2023-01-10T00:08:05.661Z,3.26
2023-01-10T00:11:27.214Z,3.38
2023-01-10T00:14:35.409Z,3.38
2023-01-10T00:17:42.307Z,3.25
2023-01-10T00:20:50.313Z,3.22
2023-01-10T00:23:57.177Z,3.20
2023-01-10T00:27:05.910Z,3.06
2023-01-10T00:30:16.655Z,3.18
2023-01-10T00:33:22.852Z,3.17
2023-01-10T00:36:29.715Z,3.18
2023-01-10T00:39:35.728Z,3.14
2023-01-10T00:42:57.545Z,3.09
2023-01-10T00:46:04.241Z,3.07
2023-01-10T00:49:12.354Z,3.01
2023-01-10T00:52:18.421Z,3.07
2023-01-10T00:55:25.551Z,2.94
2023-01-10T00:58:34.307Z,3.01
2023-01-10T01:01:41.253Z,2.97
2023-01-10T01:04:47.434Z,2.93
2023-01-10T01:07:56.008Z,2.87
2023-01-10T01:11:02.065Z,2.85
2023-01-10T01:14:11.681Z,2.84
2023-01-10T01:17:17.770Z,2.76
2023-01-10T01:20:24.666Z,2.75
2023-01-10T01:23:31.005Z,2.84
2023-01-10T01:26:38.261Z,2.82
2023-01-10T01:29:46.916Z,2.65
2023-01-10T01:32:54.204Z,2.76
2023-01-10T01:36:00.434Z,2.71
2023-01-10T01:39:07.830Z,2.71
2023-01-10T01:42:28.517Z,2.59
2023-01-10T01:45:42.902Z,2.53
2023-01-10T01:48:49.219Z,2.42
2023-01-10T01:52:06.096Z,2.51
2023-01-10T01:55:12.624Z,2.54
2023-01-10T01:58:28.134Z,2.43
2023-01-10T02:01:41.382Z,2.43
2023-01-10T02:04:57.399Z,2.55
2023-01-10T02:08:05.427Z,2.53
2023-01-10T02:11:13.792Z,2.55
2023-01-10T02:14:23.569Z,2.71
2023-01-10T02:17:33.543Z,2.74
2023-01-10T02:21:16.242Z,2.69
2023-01-10T02:25:11.980Z,2.64
2023-01-10T02:28:54.937Z,2.71
2023-01-10T02:32:43.777Z,2.67
2023-01-10T02:36:17.841Z,2.71
2023-01-10T02:39:37.836Z,2.70
2023-01-10T02:42:58.578Z,2.68
2023-01-10T02:46:13.223Z,2.77
2023-01-10T02:49:22.956Z,2.70
2023-01-10T02:52:34.490Z,2.79
2023-01-10T02:56:10.860Z,2.81
2023-01-10T03:00:07.106Z,2.78
2023-01-10T03:03:36.209Z,2.72
2023-01-10T03:06:56.157Z,2.70
2023-01-10T03:10:13.873Z,2.66
2023-01-10T03:13:30.299Z,2.64
2023-01-10T03:16:43.414Z,2.69
2023-01-10T03:19:59.489Z,2.70
2023-01-10T03:23:09.862Z,2.64
2023-01-10T03:26:20.747Z,2.69
2023-01-10T03:29:37.050Z,2.64
2023-01-10T03:32:44.858Z,2.66
2023-01-10T03:36:16.889Z,2.72
2023-01-10T03:39:40.213Z,2.81
2023-01-10T03:43:13.317Z,2.85
2023-01-10T03:46:34.019Z,2.79
2023-01-10T03:49:48.523Z,2.79
2023-01-10T03:52:54.905Z,2.78
2023-01-10T03:56:05.051Z,2.81
2023-01-10T03:59:11.148Z,2.80
2023-01-10T04:02:18.089Z,2.83
2023-01-10T04:05:24.173Z,2.78
2023-01-10T04:08:31.003Z,2.76
2023-01-10T04:11:39.864Z,2.66
2023-01-10T04:14:48.489Z,2.64
2023-01-10T04:17:54.520Z,2.61
2023-01-10T04:21:01.352Z,2.64
2023-01-10T04:24:07.777Z,2.62
2023-01-10T04:27:17.441Z,2.57
2023-01-10T04:30:24.079Z,2.52
2023-01-10T04:33:31.467Z,2.50
2023-01-10T04:36:37.886Z,2.40
2023-01-10T04:39:44.797Z,2.46
2023-01-10T04:42:53.471Z,2.58
2023-01-10T04:46:00.433Z,2.61
2023-01-10T04:49:06.466Z,2.55
2023-01-10T04:52:14.171Z,2.56
2023-01-10T04:55:20.575Z,2.53
2023-01-10T04:58:30.019Z,2.64
2023-01-10T05:01:39.356Z,2.52
2023-01-10T05:04:46.293Z,2.45
2023-01-10T05:07:52.407Z,2.37
2023-01-10T05:10:59.395Z,2.17
2023-01-10T05:14:08.062Z,2.33
2023-01-10T05:17:15.054Z,2.27
2023-01-10T05:20:21.464Z,2.33
2023-01-10T05:23:28.359Z,2.24
2023-01-10T05:26:34.420Z,2.17
2023-01-10T05:29:43.920Z,2.19
2023-01-10T05:32:50.040Z,2.23
2023-01-10T05:35:57.115Z,2.19
2023-01-10T05:39:03.154Z,2.00
2023-01-10T05:42:10.201Z,2.16
2023-01-10T05:45:19.549Z,2.27
2023-01-10T05:48:27.076Z,2.17
2023-01-10T05:51:33.415Z,2.05
2023-01-10T05:54:41.282Z,1.69
2023-01-10T05:57:47.320Z,1.88
2023-01-10T06:00:59.530Z,1.79
2023-01-10T06:04:05.617Z,1.83
2023-01-10T06:07:12.521Z,1.84
2023-01-10T06:10:19.537Z,1.86
2023-01-10T06:13:28.175Z,1.82
2023-01-10T06:16:37.100Z,1.68
2023-01-10T06:19:43.985Z,1.61
2023-01-10T06:22:50.118Z,1.78
2023-01-10T06:25:57.021Z,1.84
2023-01-10T06:29:03.000Z,1.85
2023-01-10T06:32:12.529Z,1.80
2023-01-10T06:35:18.791Z,1.91
2023-01-10T06:38:25.728Z,1.90
2023-01-10T06:41:31.871Z,1.85
2023-01-10T06:44:38.812Z,2.01
2023-01-10T06:47:47.740Z,2.08
2023-01-10T06:50:54.702Z,2.13
2023-01-10T06:54:00.886Z,2.06
2023-01-10T06:57:07.989Z,2.06
2023-01-10T07:00:15.825Z,2.01
2023-01-10T07:03:25.449Z,2.08
2023-01-10T07:06:31.680Z,2.14
2023-01-10T07:09:38.571Z,2.23
2023-01-10T07:12:44.694Z,2.20
2023-01-10T07:15:51.640Z,2.21
2023-01-10T07:19:00.267Z,2.20
2023-01-10T07:22:07.232Z,2.13
2023-01-10T07:25:13.503Z,2.07
2023-01-10T07:28:20.487Z,2.00
2023-01-10T07:31:26.691Z,1.98
2023-01-10T07:34:36.272Z,1.99
2023-01-10T07:37:42.317Z,1.94
2023-01-10T07:40:49.297Z,1.85
2023-01-10T07:43:55.294Z,1.85
2023-01-10T07:47:02.359Z,1.93
2023-01-10T07:50:13.006Z,1.90
2023-01-10T07:53:19.986Z,1.75
2023-01-10T07:56:27.092Z,1.77
2023-01-10T07:59:33.973Z,1.87
2023-01-10T08:02:40.230Z,1.93
2023-01-10T08:05:50.076Z,1.95
2023-01-10T08:08:56.188Z,2.04
2023-01-10T08:12:03.238Z,1.93
2023-01-10T08:15:11.492Z,2.02
2023-01-10T08:18:18.371Z,2.02
2023-01-10T08:21:27.147Z,2.13
2023-01-10T08:24:34.091Z,2.08
2023-01-10T08:27:41.533Z,2.10
2023-01-10T08:30:50.596Z,2.05
2023-01-10T08:33:57.046Z,2.07
2023-01-10T08:37:07.417Z,2.07
2023-01-10T08:40:15.255Z,2.17
2023-01-10T08:43:22.286Z,2.24
2023-01-10T08:46:28.580Z,2.24
2023-01-10T08:49:35.633Z,2.33
2023-01-10T08:52:44.357Z,2.35
2023-01-10T08:55:52.861Z,2.39
2023-01-10T08:58:59.125Z,2.29
2023-01-10T09:02:08.767Z,2.36
2023-01-10T09:05:26.449Z,2.37
2023-01-10T09:08:36.710Z,2.24
2023-01-10T09:11:43.078Z,2.32
2023-01-10T09:14:49.962Z,2.32
2023-01-10T09:17:57.965Z,2.32
2023-01-10T09:21:05.938Z,2.19
2023-01-10T09:24:14.652Z,2.24
2023-01-10T09:27:21.480Z,2.38
2023-01-10T09:30:29.271Z,2.30
2023-01-10T09:33:46.156Z,2.39
2023-01-10T09:36:53.622Z,2.31
2023-01-10T09:40:03.104Z,2.34
2023-01-10T09:43:25.632Z,2.37
2023-01-10T09:46:52.673Z,2.31
2023-01-10T09:50:18.164Z,2.45
2023-01-10T09:53:30.819Z,2.52
2023-01-10T09:56:41.873Z,2.55
2023-01-10T09:59:51.848Z,2.66
2023-01-10T10:02:58.220Z,2.64
2023-01-10T10:06:12.233Z,2.63
2023-01-10T10:09:26.478Z,2.65
2023-01-10T10:12:51.448Z,2.73
2023-01-10T10:16:15.982Z,2.73
2023-01-10T10:19:43.784Z,2.34
2023-01-10T10:23:18.553Z,2.31
2023-01-10T10:26:38.448Z,2.45
2023-01-10T10:30:25.008Z,2.43
2023-01-10T10:33:56.839Z,2.21
2023-01-10T10:37:13.004Z,2.26
2023-01-10T10:40:25.815Z,2.28
2023-01-10T10:43:38.539Z,2.17
2023-01-10T10:46:48.544Z,2.31
2023-01-10T10:50:10.157Z,2.17
2023-01-10T10:53:19.099Z,2.27
2023-01-10T10:56:29.544Z,2.28
2023-01-10T10:59:36.764Z,2.42
2023-01-10T11:02:53.181Z,2.52
2023-01-10T11:06:03.461Z,2.45
2023-01-10T11:09:12.771Z,2.38
2023-01-10T11:12:36.382Z,2.45
2023-01-10T11:15:46.896Z,2.38
2023-01-10T11:19:22.036Z,2.44
2023-01-10T11:22:29.150Z,2.29
2023-01-10T11:25:36.798Z,2.49
2023-01-10T11:28:46.034Z,2.62
2023-01-10T11:31:56.232Z,2.72
2023-01-10T11:35:11.025Z,2.72
2023-01-10T11:38:30.268Z,2.75
2023-01-10T11:41:37.099Z,2.64
2023-01-10T11:44:44.050Z,2.73
2023-01-10T11:47:56.322Z,2.80
2023-01-10T11:51:06.049Z,2.87
2023-01-10T11:54:23.160Z,2.78
2023-01-10T11:57:35.570Z,2.93
2023-01-10T12:00:48.935Z,2.86
2023-01-10T12:03:56.029Z,2.87
2023-01-10T12:07:13.824Z,2.86
2023-01-10T12:10:26.894Z,2.77
2023-01-10T12:13:45.722Z,2.68
2023-01-10T12:17:04.070Z,2.64
2023-01-10T12:20:18.745Z,2.74
2023-01-10T12:23:35.052Z,2.72
2023-01-10T12:26:42.553Z,2.64
2023-01-10T12:30:01.956Z,2.57
2023-01-10T12:33:17.561Z,2.59
2023-01-10T12:36:45.402Z,2.49
2023-01-10T12:40:05.102Z,2.44
2023-01-10T12:43:42.737Z,2.36
2023-01-10T12:47:09.382Z,2.41
2023-01-10T12:50:25.929Z,2.53
2023-01-10T12:53:43.822Z,2.62
2023-01-10T12:56:55.756Z,2.65
2023-01-10T13:00:08.172Z,2.72
2023-01-10T13:03:22.459Z,2.61
2023-01-10T13:06:37.024Z,2.52
2023-01-10T13:09:47.490Z,2.49
2023-01-10T13:13:07.553Z,2.43
2023-01-10T13:16:39.142Z,2.30
2023-01-10T13:19:45.255Z,2.29
2023-01-10T13:22:55.877Z,2.21
2023-01-10T13:26:09.825Z,2.03
2023-01-10T13:29:25.115Z,2.06
2023-01-10T13:32:38.727Z,1.92
2023-01-10T13:35:49.349Z,2.10
2023-01-10T13:39:01.447Z,2.07
2023-01-10T13:42:43.189Z,1.98
2023-01-10T13:46:26.780Z,2.06
2023-01-10T13:49:47.463Z,2.03
2023-01-10T13:52:53.874Z,2.09
2023-01-10T13:56:00.933Z,2.23
2023-01-10T13:59:27.056Z,2.02
2023-01-10T14:02:36.912Z,1.94
2023-01-10T14:05:52.187Z,1.95
2023-01-10T14:09:02.972Z,2.05
2023-01-10T14:12:25.039Z,2.10
2023-01-10T14:15:39.986Z,2.15
2023-01-10T14:18:50.284Z,2.18
2023-01-10T14:22:01.939Z,2.08
2023-01-10T14:25:22.205Z,2.07
2023-01-10T14:28:33.057Z,2.02
2023-01-10T14:31:42.084Z,2.02
2023-01-10T14:34:52.217Z,2.04
2023-01-10T14:38:04.843Z,1.93
2023-01-10T14:41:25.252Z,1.99
2023-01-10T14:44:44.703Z,2.04
2023-01-10T14:47:51.883Z,2.06
2023-01-10T14:51:12.543Z,1.94
2023-01-10T14:54:23.671Z,2.03
2023-01-10T14:57:29.877Z,1.99
2023-01-10T15:00:40.917Z,1.96
2023-01-10T15:03:49.967Z,1.93
2023-01-10T15:07:03.026Z,1.97
2023-01-10T15:10:28.856Z,2.01
2023-01-10T15:13:49.090Z,1.82
2023-01-10T15:17:02.729Z,2.04
2023-01-10T15:20:13.658Z,2.00
2023-01-10T15:23:27.360Z,1.92
2023-01-10T15:26:34.955Z,1.97
2023-01-10T15:29:47.160Z,1.90
2023-01-10T15:32:58.939Z,1.91
2023-01-10T15:36:15.472Z,1.98
2023-01-10T15:39:32.510Z,1.94
2023-01-10T15:42:38.857Z,1.90
2023-01-10T15:45:47.079Z,1.85
2023-01-10T15:49:03.192Z,1.74
2023-01-10T15:52:25.464Z,1.77
2023-01-10T15:55:51.549Z,1.77
2023-01-10T15:59:03.263Z,1.89
2023-01-10T16:02:25.799Z,1.87
2023-01-10T16:05:32.929Z,1.86
2023-01-10T16:08:42.255Z,1.86
2023-01-10T16:12:08.361Z,1.91
2023-01-10T16:15:24.682Z,1.93
2023-01-10T16:18:32.016Z,1.86
2023-01-10T16:21:44.291Z,1.86
2023-01-10T16:24:53.108Z,1.91
2023-01-10T16:28:02.902Z,1.92
2023-01-10T16:31:15.971Z,1.87
2023-01-10T16:34:24.648Z,1.90
2023-01-10T16:37:31.621Z,1.84
2023-01-10T16:40:43.103Z,1.86
2023-01-10T16:43:50.847Z,1.80
2023-01-10T16:46:57.071Z,1.91
2023-01-10T16:50:04.047Z,1.83
2023-01-10T16:53:11.129Z,1.62
2023-01-10T16:56:22.079Z,1.73
2023-01-10T16:59:30.815Z,1.90
2023-01-10T17:02:38.193Z,1.93
2023-01-10T17:05:44.808Z,2.00
2023-01-10T17:08:52.239Z,1.96
2023-01-10T17:12:04.925Z,2.01
2023-01-10T17:15:18.084Z,2.06
2023-01-10T17:18:29.529Z,2.01
2023-01-10T17:21:36.730Z,2.08
2023-01-10T17:24:42.945Z,1.97
2023-01-10T17:27:49.963Z,2.07
2023-01-10T17:30:59.781Z,1.98
2023-01-10T17:34:06.783Z,1.87
2023-01-10T17:37:13.272Z,1.84
2023-01-10T17:40:20.738Z,1.94
2023-01-10T17:43:27.222Z,1.87
2023-01-10T17:46:36.831Z,1.82
2023-01-10T17:49:44.398Z,1.96
2023-01-10T17:52:51.370Z,1.94
2023-01-10T17:56:00.272Z,2.00
2023-01-10T17:59:08.062Z,1.95
2023-01-10T18:02:21.370Z,1.99
2023-01-10T18:05:28.831Z,1.91
2023-01-10T18:08:35.061Z,1.89
2023-01-10T18:11:42.360Z,1.89
2023-01-10T18:14:49.952Z,1.77
2023-01-10T18:17:59.824Z,1.68
2023-01-10T18:21:07.615Z,1.76
2023-01-10T18:24:14.821Z,1.74
2023-01-10T18:27:21.173Z,1.78
2023-01-10T18:30:28.341Z,1.63
2023-01-10T18:33:37.479Z,1.84
2023-01-10T18:36:44.407Z,1.80
2023-01-10T18:39:50.830Z,1.91
2023-01-10T18:42:58.814Z,1.82
2023-01-10T18:46:23.730Z,1.86
2023-01-10T18:49:48.397Z,1.93
2023-01-10T18:53:09.719Z,1.78
2023-01-10T18:56:30.637Z,1.85
2023-01-10T18:59:51.346Z,1.87
2023-01-10T19:03:12.101Z,1.90
2023-01-10T19:06:35.634Z,1.79
2023-01-10T19:09:56.564Z,1.84
2023-01-10T19:13:17.383Z,1.70
2023-01-10T19:16:41.111Z,1.92
2023-01-10T19:20:01.936Z,1.97
2023-01-10T19:23:25.671Z,2.01
2023-01-10T19:26:47.185Z,1.90
2023-01-10T19:30:11.333Z,1.93
2023-01-10T19:33:33.279Z,1.96
2023-01-10T19:37:00.455Z,2.01
2023-01-10T19:40:24.224Z,1.83
2023-01-10T19:43:45.726Z,1.93
2023-01-10T19:47:07.137Z,2.02
2023-01-10T19:50:31.204Z,2.04
2023-01-10T19:53:58.526Z,1.99
2023-01-10T19:57:22.298Z,1.98
2023-01-10T20:00:49.567Z,1.78
2023-01-10T20:04:11.373Z,2.06
2023-01-10T20:07:33.296Z,2.08
2023-01-10T20:10:54.340Z,1.98
2023-01-10T20:14:20.827Z,2.02
2023-01-10T20:17:43.481Z,2.14
2023-01-10T20:21:08.171Z,2.18
2023-01-10T20:24:29.372Z,2.24
2023-01-10T20:27:51.025Z,2.31
2023-01-10T20:31:19.715Z,2.27
2023-01-10T20:34:40.735Z,2.16
2023-01-10T20:38:09.853Z,2.18
2023-01-10T20:41:33.376Z,2.29
2023-01-10T20:45:00.383Z,2.21
2023-01-10T20:48:25.148Z,2.19
2023-01-10T20:51:46.238Z,2.19
2023-01-10T20:55:08.206Z,2.24
2023-01-10T20:58:29.536Z,2.35
2023-01-10T21:01:55.078Z,2.42
2023-01-10T21:05:19.575Z,2.41
2023-01-10T21:08:40.955Z,2.35
2023-01-10T21:12:13.903Z,2.49
2023-01-10T21:15:50.762Z,2.63
2023-01-10T21:19:14.447Z,2.62
2023-01-10T21:22:38.117Z,2.63
2023-01-10T21:26:06.872Z,2.64
2023-01-10T21:29:27.764Z,2.69
2023-01-10T21:32:49.308Z,2.67
2023-01-10T21:36:13.017Z,2.56
2023-01-10T21:39:39.250Z,2.48
2023-01-10T21:43:00.359Z,2.39
2023-01-10T21:46:21.335Z,2.55
2023-01-10T21:49:42.372Z,2.63
2023-01-10T21:53:03.499Z,2.65
2023-01-10T21:56:27.016Z,2.67
2023-01-10T21:59:47.880Z,2.63
2023-01-10T22:03:08.858Z,2.59
2023-01-10T22:06:29.888Z,2.51
2023-01-10T22:09:52.272Z,2.44
2023-01-10T22:13:15.760Z,2.38
2023-01-10T22:16:36.611Z,2.38
2023-01-10T22:19:57.790Z,2.38
2023-01-10T22:23:18.718Z,2.33
2023-01-10T22:26:39.566Z,2.25
2023-01-10T22:30:18.292Z,2.28
2023-01-10T22:33:42.964Z,2.36
2023-01-10T22:37:03.921Z,2.46
2023-01-10T22:40:25.003Z,2.58
2023-01-10T22:43:46.446Z,2.61
2023-01-10T22:47:10.381Z,2.54
2023-01-10T22:50:31.331Z,2.53
2023-01-10T22:53:53.908Z,2.51
2023-01-10T22:57:14.855Z,2.52
2023-01-10T23:00:35.849Z,2.40
2023-01-10T23:03:59.842Z,2.46
2023-01-10T23:07:21.496Z,2.46
2023-01-10T23:10:43.919Z,2.47
2023-01-10T23:14:04.856Z,2.48
2023-01-10T23:17:28.722Z,2.44
2023-01-10T23:20:54.094Z,2.37
2023-01-10T23:24:16.124Z,2.31
2023-01-10T23:27:38.671Z,2.34
2023-01-10T23:30:59.527Z,2.35
2023-01-10T23:34:20.972Z,2.27
2023-01-10T23:37:44.556Z,2.30
2023-01-10T23:41:07.100Z,2.21
2023-01-10T23:44:29.105Z,2.17
2023-01-10T23:47:49.993Z,2.14
2023-01-10T23:51:11.694Z,2.13
2023-01-10T23:54:35.137Z,2.16
2023-01-10T23:57:55.982Z,2.20
